JP-0085 weather

CLOSED Nakajima Handa Aerodrome
Handa, Aichi Prefecture, Japan

Public forecast

Using degrees Celsius for public forecast. Weather courtesy of forecast.io.

Closest aviation weather report (METAR) to Nakajima Handa Aerodrome

Closest report is Chubu Centrair International Airport, 7.9 nm (14.6 km) WSW. Retrieved 2020/08/04 10:00 UTC (18 minutes ago):

RJGG 041000Z 13007KT 9999 FEW030 BKN/// 28/23 Q1013 NOSIG

Closest aviation forecast (TAF) to Nakajima Handa Aerodrome

Closest forecast is Chubu Centrair International Airport, 7.9 nm (14.6 km) WSW. Retrieved 2020/08/04 06:30 UTC (4 hours ago):

TAF RJGG 040505Z 0406/0512 16008KT 9999 FEW030 BECMG 0416/0418 02004KT TEMPO 0418/0500 4000 BR FEW005 BKN008 BECMG 0500/0503 20008KT